HLF6MU EDDH-EDHI
Flight info
| Callsign | HLF6MU |
|---|---|
| Flight time | 0h 4m |
| Altitude | 30000 |
| Route | AMLUH2G/33 AMLUH M852 DENIX DCT RIMET/N0466F310 T157 KOKEB/N0449F230 T157 KERAX KERAX5A |
| Aircraft | A306/H-SDE3FGHIRWY/LB1 |
Departure
| Time | 2026-04-25 19:06 |
|---|---|
| Airport | Hamburg Helmut Schmidt Airport (EDDH) |
Arrival
| Time | 2026-04-25 19:11 |
|---|---|
| Airport | Hamburg-Finkenwerder Airport (EDHI) |
| Time | Latitude | Longitude | Altitude | Speed | Heading |
|---|---|---|---|---|---|
| 2026-04-25 19:06 | 53.64613 | 10.10559 | 2994 ft | 179 kts | 264° |
| 2026-04-25 19:06 | 53.63972 | 10.06549 | 2980 ft | 172 kts | 261° |
| 2026-04-25 19:06 | 53.63432 | 10.04709 | 2991 ft | 179 kts | 246° |
| 2026-04-25 19:07 | 53.61828 | 10.01422 | 2926 ft | 180 kts | 243° |
| 2026-04-25 19:07 | 53.61122 | 9.99687 | 2581 ft | 184 kts | 244° |
| 2026-04-25 19:08 | 53.59543 | 9.96335 | 1881 ft | 174 kts | 240° |
| 2026-04-25 19:08 | 53.58821 | 9.94790 | 1663 ft | 160 kts | 240° |
| 2026-04-25 19:09 | 53.56945 | 9.90802 | 1037 ft | 138 kts | 241° |
| 2026-04-25 19:09 | 53.56542 | 9.89935 | 918 ft | 140 kts | 240° |
| 2026-04-25 19:09 | 53.55123 | 9.86929 | 464 ft | 139 kts | 236° |
| 2026-04-25 19:10 | 53.54534 | 9.85678 | 240 ft | 132 kts | 237° |
| 2026-04-25 19:10 | 53.53978 | 9.84501 | 81 ft | 125 kts | 238° |
| 2026-04-25 19:10 | 53.53463 | 9.83400 | 31 ft | 111 kts | 233° |
| 2026-04-25 19:10 | 53.53128 | 9.82693 | 28 ft | 73 kts | 232° |
| 2026-04-25 19:11 | 53.52942 | 9.82297 | 31 ft | 17 kts | 233° |
| 2026-04-25 19:11 | 53.52925 | 9.82200 | 30 ft | 9 kts | 242° |
| 2026-04-25 19:11 | 53.52901 | 9.82229 | 30 ft | 9 kts | 62° |
| 2026-04-25 19:11 | 53.52948 | 9.82327 | 31 ft | 22 kts | 50° |
| 2026-04-25 19:12 | 53.53066 | 9.82569 | 29 ft | 34 kts | 50° |
| 2026-04-25 19:12 | 53.53222 | 9.82891 | 29 ft | 36 kts | 51° |
| 2026-04-25 19:12 | 53.53321 | 9.83139 | 30 ft | 12 kts | 93° |
| 2026-04-25 19:12 | 53.53278 | 9.83301 | 30 ft | 17 kts | 115° |
| 2026-04-25 19:13 | 53.53229 | 9.83475 | 30 ft | 16 kts | 115° |
| 2026-04-25 19:13 | 53.53180 | 9.83590 | 30 ft | 7 kts | 176° |
| 2026-04-25 19:13 | 53.53140 | 9.83558 | 30 ft | 2 kts | 207° |